Time;durP1;ratioP1;P1;durP2;ratioP2;P2;SDS_P1;SDS_P2;PMS_P1;PMS_P2;Temp;Humidity;BMP_temperature;BMP_pressure;BME280_temperature;BME280_humidity;BME280_pressure;Samples;Min_cycle;Max_cycle;Signal;HPM_P1;HPM_P2
2023/08/15 00:00:22;;;;;;;9.50;8.60;;;19.00;99.90;;;;;;5049416;28;20362;-49
2023/08/15 00:02:48;;;;;;;15.88;11.70;;;18.80;99.90;;;;;;5049237;28;20090;-50
2023/08/15 00:05:14;;;;;;;14.73;11.50;;;18.80;99.90;;;;;;5044465;28;20120;-47
2023/08/15 00:07:39;;;;;;;18.65;10.75;;;18.80;99.90;;;;;;5029318;28;20129;-51
2023/08/15 00:10:05;;;;;;;15.45;9.68;;;18.80;99.90;;;;;;5028925;28;20045;-47
2023/08/15 00:12:31;;;;;;;;;;;18.80;99.90;;;;;;5029762;28;20095;-49
2023/08/15 00:14:56;;;;;;;14.82;9.43;;;18.80;99.90;;;;;;5029197;28;19921;-49
2023/08/15 00:17:22;;;;;;;;;;;18.90;99.90;;;;;;5039222;28;20037;-49
2023/08/15 00:19:48;;;;;;;10.25;7.72;;;18.90;99.90;;;;;;5048392;28;20197;-51
2023/08/15 00:22:13;;;;;;;11.90;9.27;;;18.90;99.90;;;;;;5048524;28;20033;-49
2023/08/15 00:24:39;;;;;;;15.15;8.55;;;18.90;99.90;;;;;;5030747;28;20037;-48
2023/08/15 00:27:04;;;;;;;11.27;9.05;;;19.00;99.90;;;;;;5049119;28;20048;-49
2023/08/15 00:29:30;;;;;;;;;;;19.00;99.90;;;;;;5048370;28;20123;-49
2023/08/15 00:31:55;;;;;;;11.57;8.25;;;19.00;99.90;;;;;;5051646;28;20400;-49
2023/08/15 00:34:21;;;;;;;;;;;19.00;99.90;;;;;;5053030;28;20094;-48
2023/08/15 00:36:46;;;;;;;15.05;8.90;;;19.00;99.90;;;;;;5052751;28;19917;-50
2023/08/15 00:39:12;;;;;;;13.25;10.23;;;19.00;99.90;;;;;;5050352;28;20044;-49
2023/08/15 00:41:37;;;;;;;12.15;10.23;;;19.10;99.90;;;;;;5056119;28;20029;-51
2023/08/15 00:44:03;;;;;;;;;;;19.10;99.90;;;;;;5061903;28;20139;-47
2023/08/15 00:46:31;;;;;;;13.60;10.68;;;19.20;99.90;;;;;;5018204;28;19917;-51
2023/08/15 00:48:57;;;;;;;20.60;10.48;;;19.20;99.90;;;;;;5032957;28;20033;-48
2023/08/15 00:51:23;;;;;;;14.43;10.52;;;19.20;99.90;;;;;;5050692;28;20091;-50
2023/08/15 00:53:49;;;;;;;;;;;19.20;99.90;;;;;;5048509;28;20052;-50
2023/08/15 00:56:16;;;;;;;15.70;11.10;;;19.20;99.90;;;;;;5042293;28;19920;-48
2023/08/15 00:58:42;;;;;;;17.33;11.75;;;19.20;99.90;;;;;;5060038;28;20033;-50
2023/08/15 01:01:15;;;;;;;17.73;11.07;;;19.20;99.90;;;;;;5055735;28;20068;-50
2023/08/15 01:03:41;;;;;;;18.15;12.60;;;19.10;99.90;;;;;;5034033;28;20118;-48
2023/08/15 01:06:07;;;;;;;;;;;19.10;99.90;;;;;;5052610;28;20033;-50
2023/08/15 01:08:33;;;;;;;14.05;11.60;;;19.10;99.90;;;;;;5051365;28;20393;-48
2023/08/15 01:10:59;;;;;;;;;;;19.10;99.90;;;;;;5052289;28;20076;-47
2023/08/15 01:13:31;;;;;;;15.38;11.85;;;19.10;99.90;;;;;;5034257;28;19925;-50
2023/08/15 01:15:58;;;;;;;17.08;12.43;;;19.10;99.90;;;;;;5032312;28;20116;-50
2023/08/15 01:19:01;;;;;;;17.65;12.00;;;19.10;99.90;;;;;;5031026;28;20398;-50
2023/08/15 01:21:38;;;;;;;18.95;11.32;;;19.20;99.90;;;;;;4950969;29;20047;-49
2023/08/15 01:24:05;;;;;;;17.83;12.10;;;19.20;99.90;;;;;;4951642;29;20142;-50
2023/08/15 01:26:31;;;;;;;16.13;12.65;;;19.20;99.90;;;;;;4951587;29;20058;-49
2023/08/15 01:28:56;;;;;;;18.00;11.75;;;19.20;99.90;;;;;;4950377;29;20130;-47
2023/08/15 01:31:28;;;;;;;;;;;19.10;99.90;;;;;;4951933;29;20066;-48
2023/08/15 01:34:12;;;;;;;13.52;11.77;;;19.10;99.90;;;;;;4950430;29;20360;-48
2023/08/15 01:36:43;;;;;;;13.90;12.02;;;19.00;99.90;;;;;;4951185;29;20039;-48
2023/08/15 01:39:12;;;;;;;20.95;13.45;;;19.00;99.90;;;;;;4950196;29;20050;-48
2023/08/15 01:41:40;;;;;;;16.20;13.43;;;19.00;99.90;;;;;;4957723;28;20531;-49
2023/08/15 01:44:11;;;;;;;16.58;12.77;;;18.90;99.90;;;;;;4988804;28;20050;-48
2023/08/15 01:46:37;;;;;;;17.65;11.52;;;19.00;99.90;;;;;;4989422;28;20061;-49
2023/08/15 01:49:03;;;;;;;16.95;11.75;;;18.90;99.90;;;;;;4978374;28;20450;-49
2023/08/15 01:51:28;;;;;;;14.35;12.15;;;18.90;99.90;;;;;;4970253;28;20065;-49
2023/08/15 01:53:54;;;;;;;;;;;18.80;99.90;;;;;;4969450;28;20588;-49
2023/08/15 01:56:19;;;;;;;13.68;11.32;;;18.80;99.90;;;;;;4980485;28;20146;-49
2023/08/15 01:58:45;;;;;;;13.57;11.02;;;18.80;99.90;;;;;;5031388;28;20046;-48
2023/08/15 02:01:10;;;;;;;14.25;12.55;;;18.70;99.90;;;;;;5048389;28;20134;-49
2023/08/15 02:03:36;;;;;;;18.80;13.32;;;18.60;99.90;;;;;;5016726;28;20082;-47
2023/08/15 02:06:03;;;;;;;17.15;14.75;;;18.50;99.90;;;;;;5038467;28;20041;-48
2023/08/15 02:08:28;;;;;;;27.63;16.13;;;18.50;99.90;;;;;;5050293;28;20453;-49
2023/08/15 02:10:54;;;;;;;19.58;15.68;;;18.50;99.90;;;;;;5044707;28;20041;-47
2023/08/15 02:13:20;;;;;;;19.55;15.07;;;18.50;99.90;;;;;;5030692;28;20041;-49
2023/08/15 02:15:46;;;;;;;20.63;15.35;;;18.50;99.90;;;;;;5012987;28;20053;-49
2023/08/15 02:18:12;;;;;;;17.65;16.00;;;18.50;99.90;;;;;;5030225;28;20041;-49
2023/08/15 02:20:37;;;;;;;;;;;18.50;99.90;;;;;;5014051;28;20037;-47
2023/08/15 02:23:03;;;;;;;16.23;11.48;;;18.50;99.90;;;;;;5036706;28;19927;-50
2023/08/15 02:25:29;;;;;;;;;;;18.40;99.90;;;;;;5051357;28;20040;-49
2023/08/15 02:27:54;;;;;;;12.75;11.45;;;18.30;99.90;;;;;;5049880;28;19920;-50
2023/08/15 02:30:20;;;;;;;20.05;17.35;;;18.20;99.90;;;;;;5050744;28;20161;-49
2023/08/15 02:32:46;;;;;;;20.15;17.80;;;18.20;99.90;;;;;;5032616;28;20516;-48
2023/08/15 02:35:13;;;;;;;;;;;18.20;99.90;;;;;;5050855;28;20138;-48
2023/08/15 02:37:39;;;;;;;29.40;17.25;;;18.20;99.90;;;;;;5050536;28;19921;-50
2023/08/15 02:40:06;;;;;;;17.80;14.80;;;18.20;99.90;;;;;;5049092;28;20041;-50
2023/08/15 02:42:32;;;;;;;21.55;15.50;;;18.10;99.90;;;;;;5060255;28;20042;-49
2023/08/15 02:44:59;;;;;;;22.48;19.00;;;18.10;99.90;;;;;;5069127;28;20107;-50
2023/08/15 02:47:24;;;;;;;21.55;18.15;;;18.10;99.90;;;;;;5070369;28;20070;-49
2023/08/15 02:49:50;;;;;;;18.45;16.65;;;18.10;99.90;;;;;;5051567;28;20464;-48
2023/08/15 02:52:15;;;;;;;20.25;16.45;;;18.10;99.90;;;;;;5070190;28;20509;-47
2023/08/15 02:54:41;;;;;;;21.92;17.13;;;18.10;99.90;;;;;;5054807;28;20055;-48
2023/08/15 02:57:06;;;;;;;23.88;20.83;;;18.10;99.90;;;;;;5049185;28;20095;-48
2023/08/15 02:59:32;;;;;;;21.88;18.08;;;18.20;99.90;;;;;;5029248;28;20037;-48
2023/08/15 03:01:57;;;;;;;27.95;18.23;;;18.30;99.90;;;;;;5036778;28;20458;-50
2023/08/15 03:04:23;;;;;;;22.50;18.77;;;18.30;99.90;;;;;;5049751;28;20043;-49
2023/08/15 03:06:49;;;;;;;21.25;17.75;;;18.40;99.90;;;;;;5049981;28;20041;-49
2023/08/15 03:09:16;;;;;;;23.17;16.45;;;18.40;99.90;;;;;;5049671;28;20040;-50
2023/08/15 03:11:42;;;;;;;23.15;16.02;;;18.50;99.90;;;;;;5049586;28;20159;-48
2023/08/15 03:14:08;;;;;;;24.27;17.65;;;18.50;99.90;;;;;;5042733;28;20041;-49
2023/08/15 03:16:33;;;;;;;17.10;15.40;;;18.50;99.90;;;;;;5029940;28;20476;-49
2023/08/15 03:18:59;;;;;;;16.88;15.07;;;18.60;99.90;;;;;;5029077;28;20045;-47
2023/08/15 03:21:25;;;;;;;;;;;18.60;99.90;;;;;;5030475;28;20099;-48
2023/08/15 03:23:50;;;;;;;17.90;14.55;;;18.60;99.90;;;;;;5029338;28;19964;-49
2023/08/15 03:26:16;;;;;;;15.38;13.98;;;18.60;99.90;;;;;;5029864;28;20040;-48
2023/08/15 03:28:41;;;;;;;17.13;15.05;;;18.60;99.90;;;;;;5028564;28;20049;-50
2023/08/15 03:31:11;;;;;;;20.75;14.57;;;18.60;99.90;;;;;;5030343;28;20498;-49
2023/08/15 03:33:37;;;;;;;18.60;13.80;;;18.60;99.90;;;;;;5029461;28;20042;-49
2023/08/15 03:36:02;;;;;;;;;;;18.60;99.90;;;;;;5030410;28;20077;-49
2023/08/15 03:38:28;;;;;;;20.48;15.23;;;18.70;99.90;;;;;;5028846;28;19972;-49
2023/08/15 03:41:02;;;;;;;18.73;15.23;;;18.70;99.90;;;;;;5029399;28;20107;-49
2023/08/15 03:43:29;;;;;;;17.48;15.75;;;18.80;99.90;;;;;;5029588;28;20255;-49
2023/08/15 03:45:54;;;;;;;16.77;15.18;;;18.70;99.90;;;;;;5029844;28;20049;-53
2023/08/15 03:48:20;;;;;;;19.65;15.00;;;18.70;99.90;;;;;;5028802;28;20519;-47
2023/08/15 03:50:45;;;;;;;;;;;18.70;99.90;;;;;;5037573;28;20069;-48
2023/08/15 03:53:11;;;;;;;18.02;16.13;;;18.70;99.90;;;;;;5048952;28;20362;-47
2023/08/15 03:55:36;;;;;;;16.45;14.68;;;18.70;99.90;;;;;;5049003;28;20041;-50
2023/08/15 03:58:02;;;;;;;18.00;14.15;;;18.80;99.90;;;;;;5047638;28;20040;-48
2023/08/15 04:00:28;;;;;;;;;;;18.80;99.90;;;;;;5041729;28;20030;-48
2023/08/15 04:02:53;;;;;;;17.80;14.82;;;18.90;99.90;;;;;;5029327;28;20381;-50
2023/08/15 04:05:19;;;;;;;22.88;17.60;;;18.90;99.90;;;;;;5045326;28;20041;-50
2023/08/15 04:07:45;;;;;;;;;;;19.00;99.90;;;;;;5052010;28;20068;-47
2023/08/15 04:10:14;;;;;;;20.75;16.75;;;19.00;99.90;;;;;;5051163;28;19928;-48
2023/08/15 04:12:40;;;;;;;28.73;21.00;;;19.10;99.90;;;;;;5048359;28;20510;-48
2023/08/15 04:15:06;;;;;;;27.80;21.60;;;19.10;99.90;;;;;;5031708;28;20120;-48
2023/08/15 04:17:32;;;;;;;25.25;20.38;;;19.20;99.90;;;;;;5049522;28;20166;-48
2023/08/15 04:19:57;;;;;;;25.30;20.95;;;19.20;99.90;;;;;;5051610;28;20029;-49
2023/08/15 04:22:23;;;;;;;24.02;20.85;;;19.30;99.90;;;;;;5028340;28;20043;-48
2023/08/15 04:24:48;;;;;;;;;;;19.30;99.90;;;;;;5040315;28;20045;-47
2023/08/15 04:27:14;;;;;;;26.45;21.35;;;19.30;99.90;;;;;;5033120;28;19939;-49
2023/08/15 04:29:40;;;;;;;;;;;19.40;99.90;;;;;;5020277;28;20036;-48
2023/08/15 04:32:06;;;;;;;31.10;21.15;;;19.40;99.90;;;;;;5039903;28;19921;-48
2023/08/15 04:34:31;;;;;;;;;;;19.30;99.90;;;;;;5060996;28;20447;-50
2023/08/15 04:36:57;;;;;;;24.02;18.83;;;19.40;99.90;;;;;;5053192;28;19916;-50
2023/08/15 04:39:22;;;;;;;;;;;19.40;99.90;;;;;;5051893;28;20102;-49
2023/08/15 04:41:48;;;;;;;23.05;19.15;;;19.40;99.90;;;;;;5052847;28;19917;-50
2023/08/15 04:44:13;;;;;;;;;;;19.40;99.90;;;;;;5072530;28;20087;-49
2023/08/15 04:46:39;;;;;;;23.15;17.15;;;19.40;99.90;;;;;;5072680;28;20262;-52
2023/08/15 04:49:04;;;;;;;;;;;19.40;99.90;;;;;;5053070;28;20039;-49
2023/08/15 04:51:30;;;;;;;23.50;18.80;;;19.50;99.90;;;;;;5052468;28;20004;-49
2023/08/15 04:53:56;;;;;;;;;;;19.40;99.90;;;;;;5052060;28;20087;-48
2023/08/15 04:56:22;;;;;;;20.45;15.73;;;19.50;99.90;;;;;;5052476;28;19981;-50
2023/08/15 04:58:47;;;;;;;;;;;19.40;99.90;;;;;;5052079;28;20380;-48
2023/08/15 05:01:13;;;;;;;20.63;16.85;;;19.40;99.90;;;;;;5052622;28;19928;-47
2023/08/15 05:03:39;;;;;;;19.88;17.42;;;19.40;99.90;;;;;;5051890;28;20041;-48
2023/08/15 05:06:04;;;;;;;19.25;16.02;;;19.40;99.90;;;;;;5052325;28;20037;-50
2023/08/15 05:08:30;;;;;;;;;;;19.40;99.90;;;;;;5051280;28;20045;-50
2023/08/15 05:10:55;;;;;;;16.27;14.20;;;19.40;99.90;;;;;;5065148;28;20403;-48
2023/08/15 05:13:21;;;;;;;;;;;19.50;99.90;;;;;;5072391;28;20125;-49
2023/08/15 05:15:47;;;;;;;24.25;17.23;;;19.50;99.90;;;;;;5072021;28;20333;-49
2023/08/15 05:18:15;;;;;;;22.30;16.30;;;19.50;99.90;;;;;;5070229;28;20509;-49
2023/08/15 05:20:41;;;;;;;21.75;15.50;;;19.50;99.90;;;;;;5055202;28;20335;-49
2023/08/15 05:23:07;;;;;;;;;;;19.50;99.90;;;;;;5031758;28;20038;-50
2023/08/15 05:25:32;;;;;;;22.38;16.15;;;19.50;99.90;;;;;;5038683;28;19920;-49
2023/08/15 05:28:02;;;;;;;;;;;19.50;99.90;;;;;;5051485;28;20037;-51
2023/08/15 05:30:27;;;;;;;20.17;16.42;;;19.50;99.90;;;;;;5051997;28;19916;-50
2023/08/15 05:32:53;;;;;;;20.70;14.68;;;19.50;99.90;;;;;;5051960;28;20132;-49
2023/08/15 05:35:19;;;;;;;20.17;14.25;;;19.50;99.90;;;;;;5052009;28;20508;-49
2023/08/15 05:37:44;;;;;;;22.00;14.50;;;19.50;99.90;;;;;;5044335;28;20054;-50
2023/08/15 05:40:10;;;;;;;;;;;19.50;99.90;;;;;;5031671;28;20053;-47
2023/08/15 05:42:36;;;;;;;21.15;14.15;;;19.50;99.90;;;;;;5031812;28;19917;-49
2023/08/15 05:45:01;;;;;;;20.40;13.77;;;19.50;99.90;;;;;;5031377;28;20045;-48
2023/08/15 05:47:27;;;;;;;;;;;19.40;99.90;;;;;;5015636;28;20048;-50
2023/08/15 05:49:52;;;;;;;15.43;12.10;;;19.40;99.90;;;;;;5038126;28;20007;-50
2023/08/15 05:52:18;;;;;;;17.60;13.43;;;19.40;99.90;;;;;;5028654;28;20074;-50
2023/08/15 05:54:43;;;;;;;;;;;19.40;99.90;;;;;;5048371;28;20096;-48
2023/08/15 05:57:09;;;;;;;19.92;12.80;;;19.40;99.90;;;;;;5050835;28;19959;-49
2023/08/15 05:59:34;;;;;;;;;;;19.30;99.90;;;;;;5050720;28;20094;-49
2023/08/15 06:02:00;;;;;;;21.45;12.70;;;19.30;99.90;;;;;;5048345;28;20007;-49
2023/08/15 06:04:26;;;;;;;;;;;19.30;99.90;;;;;;5032511;28;20033;-48
2023/08/15 06:06:51;;;;;;;20.38;11.93;;;19.30;99.90;;;;;;5037904;28;19963;-48
2023/08/15 06:09:17;;;;;;;16.58;11.05;;;19.20;99.90;;;;;;5039825;28;20095;-49
2023/08/15 06:11:42;;;;;;;16.05;11.15;;;19.20;99.90;;;;;;5045665;28;20131;-48
2023/08/15 06:14:08;;;;;;;;;;;19.20;99.90;;;;;;5056486;28;20035;-48
2023/08/15 06:16:34;;;;;;;19.90;12.43;;;19.20;99.90;;;;;;5043481;28;19917;-49
2023/08/15 06:18:59;;;;;;;15.95;11.23;;;19.20;99.90;;;;;;5049762;28;20450;-50
2023/08/15 06:21:25;;;;;;;18.15;9.93;;;19.20;99.90;;;;;;5029377;28;20079;-50
2023/08/15 06:23:50;;;;;;;;;;;19.10;99.90;;;;;;5045662;28;20025;-49
2023/08/15 06:26:16;;;;;;;12.05;9.63;;;19.10;99.90;;;;;;5047361;28;19916;-50
2023/08/15 06:28:41;;;;;;;;;;;19.10;99.90;;;;;;5044165;28;20041;-49
2023/08/15 06:31:07;;;;;;;14.48;10.60;;;19.10;99.90;;;;;;5041589;28;19962;-48
2023/08/15 06:33:32;;;;;;;;;;;19.20;99.90;;;;;;5039631;28;20037;-49
2023/08/15 06:35:58;;;;;;;11.55;10.35;;;19.30;99.90;;;;;;5035511;28;19924;-49
2023/08/15 06:38:25;;;;;;;13.88;9.20;;;19.40;99.90;;;;;;5032103;28;20041;-50
2023/08/15 06:40:50;;;;;;;14.30;10.52;;;19.40;99.90;;;;;;5042172;28;20041;-49
2023/08/15 06:43:16;;;;;;;14.55;9.38;;;19.50;99.90;;;;;;5049186;28;20481;-51
2023/08/15 06:45:42;;;;;;;;;;;19.60;99.90;;;;;;5048047;28;20055;-50
2023/08/15 06:48:07;;;;;;;13.88;8.52;;;19.70;99.90;;;;;;5036428;28;20332;-50
2023/08/15 06:50:33;;;;;;;;;;;19.80;99.90;;;;;;5035491;28;20138;-50
2023/08/15 06:52:59;;;;;;;10.45;7.40;;;19.90;99.90;;;;;;5037617;28;19964;-50
2023/08/15 06:55:25;;;;;;;;;;;19.90;99.90;;;;;;5044457;28;20633;-49
2023/08/15 06:57:50;;;;;;;14.88;7.85;;;19.90;99.90;;;;;;5043993;28;20289;-51
2023/08/15 07:00:17;;;;;;;10.65;7.13;;;20.00;99.90;;;;;;5032289;28;20032;-50
2023/08/15 07:02:42;;;;;;;14.45;7.55;;;20.10;99.90;;;;;;5035402;28;20056;-48
2023/08/15 07:05:10;;;;;;;14.65;6.78;;;20.20;99.90;;;;;;5036363;28;20034;-49
2023/08/15 07:07:37;;;;;;;15.57;6.25;;;20.30;99.90;;;;;;5042465;28;20047;-50
2023/08/15 07:10:06;;;;;;;15.02;7.28;;;20.30;99.90;;;;;;5042684;28;20094;-50
2023/08/15 07:12:32;;;;;;;9.32;6.18;;;20.40;99.90;;;;;;5042985;28;20716;-51
2023/08/15 07:14:58;;;;;;;11.60;6.82;;;20.50;99.90;;;;;;5039069;28;20087;-49
2023/08/15 07:17:23;;;;;;;;;;;20.50;99.90;;;;;;5043607;28;20051;-49
2023/08/15 07:19:49;;;;;;;14.02;6.97;;;20.50;99.90;;;;;;5042663;28;19967;-50
2023/08/15 07:22:14;;;;;;;;;;;20.60;99.90;;;;;;5044132;28;20033;-49
2023/08/15 07:24:40;;;;;;;14.75;5.65;;;20.70;99.90;;;;;;5047246;28;19994;-49
2023/08/15 07:27:05;;;;;;;;;;;20.80;99.90;;;;;;5044536;28;20047;-51
2023/08/15 07:29:31;;;;;;;16.75;6.45;;;20.90;99.90;;;;;;5041342;28;19924;-49
2023/08/15 07:31:56;;;;;;;;;;;20.90;99.90;;;;;;5044604;28;20082;-49
2023/08/15 07:34:22;;;;;;;13.48;4.60;;;20.90;99.90;;;;;;5042021;28;19924;-50
2023/08/15 07:36:48;;;;;;;;;;;21.00;99.90;;;;;;5044951;28;20064;-51
2023/08/15 07:39:14;;;;;;;12.60;4.88;;;21.10;99.90;;;;;;5041927;28;20177;-49
2023/08/15 07:41:41;;;;;;;;;;;21.20;99.90;;;;;;5045228;28;20382;-49
2023/08/15 07:44:07;;;;;;;10.40;4.78;;;21.20;99.90;;;;;;5042648;28;20320;-49
2023/08/15 07:46:33;;;;;;;;;;;21.40;99.90;;;;;;5044103;28;20036;-48
2023/08/15 07:48:58;;;;;;;13.65;5.55;;;21.40;99.90;;;;;;5039081;28;20003;-49
2023/08/15 07:51:24;;;;;;;;;;;21.50;99.90;;;;;;5044616;28;20032;-47
2023/08/15 07:53:49;;;;;;;10.23;4.55;;;21.50;99.90;;;;;;5043458;28;19925;-49
2023/08/15 07:56:15;;;;;;;;;;;21.50;99.90;;;;;;5034878;28;20057;-49
2023/08/15 07:58:40;;;;;;;11.20;4.75;;;21.60;99.90;;;;;;5042668;28;20432;-48
2023/08/15 08:01:06;;;;;;;;;;;21.80;99.90;;;;;;5044135;28;20083;-49
2023/08/15 08:03:32;;;;;;;11.07;4.50;;;21.80;99.90;;;;;;5044084;28;19975;-50
2023/08/15 08:05:57;;;;;;;;;;;22.00;99.90;;;;;;5044038;28;20132;-48
2023/08/15 08:08:23;;;;;;;13.05;4.28;;;22.00;99.90;;;;;;5039501;28;20433;-49
2023/08/15 08:10:48;;;;;;;;;;;22.00;99.90;;;;;;5041341;28;20075;-49
2023/08/15 08:13:17;;;;;;;10.00;4.38;;;22.10;99.90;;;;;;5004626;28;19924;-49
2023/08/15 08:15:43;;;;;;;7.93;4.28;;;22.20;99.90;;;;;;5018994;28;20053;-50
2023/08/15 08:18:08;;;;;;;;;;;22.30;99.90;;;;;;5039882;28;20036;-48
2023/08/15 08:20:34;;;;;;;7.28;2.33;;;22.20;99.90;;;;;;5038502;28;19970;-49
2023/08/15 08:23:00;;;;;;;;;;;22.20;99.90;;;;;;5042716;28;20033;-50
2023/08/15 08:25:26;;;;;;;6.03;2.97;;;22.10;99.90;;;;;;5038122;28;19928;-48
2023/08/15 08:27:52;;;;;;;10.48;4.00;;;22.00;99.90;;;;;;5038719;28;20040;-49
2023/08/15 08:30:19;;;;;;;;;;;22.10;99.90;;;;;;5039535;28;20041;-48
2023/08/15 08:32:44;;;;;;;6.22;2.28;;;22.10;99.90;;;;;;5040560;28;19924;-50
2023/08/15 08:35:15;;;;;;;5.30;2.65;;;22.20;99.90;;;;;;5037288;28;20094;-47
2023/08/15 08:37:40;;;;;;;9.05;3.08;;;22.30;99.90;;;;;;5018624;28;20055;-47
2023/08/15 08:40:07;;;;;;;;;;;22.30;99.90;;;;;;5037240;28;20029;-48
2023/08/15 08:42:36;;;;;;;7.63;3.63;;;22.40;99.90;;;;;;5037223;28;20452;-50
2023/08/15 08:45:03;;;;;;;10.88;3.22;;;22.30;99.90;;;;;;5039682;28;20037;-47
2023/08/15 08:47:30;;;;;;;15.95;4.50;;;22.30;99.90;;;;;;5043050;28;20044;-50
2023/08/15 08:49:57;;;;;;;11.00;5.25;;;22.30;99.90;;;;;;5035881;28;20083;-48
2023/08/15 08:52:24;;;;;;;11.25;5.07;;;22.20;99.90;;;;;;5040771;28;20049;-48
2023/08/15 08:54:50;;;;;;;13.55;4.63;;;22.20;99.90;;;;;;5042790;28;20409;-50
2023/08/15 08:57:17;;;;;;;;;;;22.20;99.90;;;;;;5042470;28;20041;-51
2023/08/15 08:59:43;;;;;;;7.32;4.03;;;22.10;99.90;;;;;;5023255;28;19924;-49
2023/08/15 09:02:12;;;;;;;8.73;3.63;;;22.20;99.90;;;;;;5043549;28;20037;-49
2023/08/15 09:04:38;;;;;;;7.50;3.65;;;22.30;99.90;;;;;;5039875;28;20386;-51
2023/08/15 09:07:03;;;;;;;;;;;22.40;99.90;;;;;;5044980;28;20036;-49
2023/08/15 09:09:29;;;;;;;8.38;3.08;;;22.30;99.90;;;;;;5024595;28;20412;-49
2023/08/15 09:11:54;;;;;;;;;;;22.30;99.90;;;;;;5044592;28;20142;-48
2023/08/15 09:14:20;;;;;;;8.82;2.55;;;22.30;99.90;;;;;;5042622;28;19924;-50
2023/08/15 09:16:49;;;;;;;7.53;2.90;;;22.30;99.90;;;;;;5039621;28;20128;-51
2023/08/15 09:19:15;;;;;;;7.97;2.97;;;22.30;99.90;;;;;;5042891;28;20090;-52
2023/08/15 09:21:42;;;;;;;8.55;3.30;;;22.20;99.90;;;;;;5042372;28;20037;-58
2023/08/15 09:24:08;;;;;;;9.35;3.92;;;22.20;99.90;;;;;;5042446;28;20039;-53
2023/08/15 09:26:37;;;;;;;;;;;22.20;99.90;;;;;;5043321;28;20033;-56
2023/08/15 09:29:04;;;;;;;9.25;3.13;;;22.10;99.90;;;;;;5043524;28;20346;-56
2023/08/15 09:31:30;;;;;;;11.80;4.25;;;22.10;99.90;;;;;;5044125;28;20037;-56
2023/08/15 09:33:56;;;;;;;;;;;22.10;99.90;;;;;;5044953;28;20375;-57
2023/08/15 09:36:23;;;;;;;9.02;3.05;;;22.10;99.90;;;;;;5042129;28;19916;-50
2023/08/15 09:38:54;;;;;;;7.85;2.97;;;22.00;99.90;;;;;;5043808;28;20044;-54
2023/08/15 09:41:24;;;;;;;11.95;3.83;;;22.00;99.90;;;;;;5042782;28;20033;-55
2023/08/15 09:43:53;;;;;;;8.35;2.95;;;22.00;99.90;;;;;;5043160;28;20057;-55
2023/08/15 09:46:20;;;;;;;6.40;3.45;;;22.00;99.90;;;;;;5023025;28;20041;-56
2023/08/15 09:48:48;;;;;;;9.15;3.35;;;22.00;99.90;;;;;;5041500;28;20041;-56
2023/08/15 09:51:18;;;;;;;5.18;2.17;;;21.90;99.90;;;;;;5043908;28;20045;-53
2023/08/15 09:53:45;;;;;;;7.25;2.78;;;21.90;99.90;;;;;;5042853;28;20080;-53
2023/08/15 09:56:11;;;;;;;9.65;2.10;;;21.90;99.90;;;;;;5043511;28;20040;-57
2023/08/15 09:58:38;;;;;;;4.10;1.38;;;21.90;99.90;;;;;;5044196;28;20065;-56
2023/08/15 10:01:07;;;;;;;5.00;1.23;;;21.90;99.90;;;;;;5043100;28;20442;-53
2023/08/15 10:03:37;;;;;;;7.10;2.15;;;21.80;99.90;;;;;;5042729;28;20033;-53
2023/08/15 10:06:04;;;;;;;7.78;1.85;;;21.80;99.90;;;;;;5039025;28;20045;-57
2023/08/15 10:08:31;;;;;;;2.83;1.20;;;21.80;99.90;;;;;;5046455;28;20080;-56
2023/08/15 10:10:58;;;;;;;5.70;1.90;;;21.90;99.90;;;;;;5040955;28;20379;-53
2023/08/15 10:13:32;;;;;;;6.13;2.03;;;22.00;99.90;;;;;;5044626;28;20608;-52
2023/08/15 10:15:58;;;;;;;8.63;1.85;;;22.30;99.90;;;;;;5049283;28;20033;-54
2023/08/15 10:18:25;;;;;;;5.63;1.92;;;22.40;99.90;;;;;;5043092;28;20047;-56
2023/08/15 10:20:51;;;;;;;5.15;1.55;;;22.60;99.90;;;;;;5044127;28;20075;-54
2023/08/15 10:23:30;;;;;;;5.20;1.60;;;22.70;99.90;;;;;;5024909;28;20040;-55
2023/08/15 10:25:56;;;;;;;6.88;2.08;;;22.70;99.90;;;;;;5040671;28;20469;-58
2023/08/15 10:28:22;;;;;;;6.57;2.00;;;22.80;99.90;;;;;;5023794;28;20084;-53
2023/08/15 10:30:50;;;;;;;;;;;22.90;99.90;;;;;;5039974;28;20474;-56
2023/08/15 10:33:20;;;;;;;10.05;2.03;;;22.90;99.90;;;;;;5042903;28;19976;-53
2023/08/15 10:35:51;;;;;;;6.18;1.52;;;23.00;99.90;;;;;;5040513;28;20076;-54
2023/08/15 10:38:20;;;;;;;6.15;2.17;;;23.00;99.90;;;;;;5041100;28;20579;-57
2023/08/15 10:40:46;;;;;;;8.48;2.05;;;23.10;99.90;;;;;;5041575;28;20037;-54
2023/08/15 10:43:16;;;;;;;6.95;2.22;;;23.30;99.90;;;;;;5043054;28;20071;-55
2023/08/15 10:45:50;;;;;;;4.53;1.63;;;23.40;99.90;;;;;;5041411;28;20040;-54
2023/08/15 10:48:49;;;;;;;8.13;1.83;;;23.50;99.90;;;;;;5042293;28;20379;-53
2023/08/15 10:51:30;;;;;;;6.50;1.92;;;23.60;99.90;;;;;;5039619;28;20048;-54
2023/08/15 10:54:10;;;;;;;4.95;2.17;;;23.50;99.90;;;;;;5041410;28;20071;-56
2023/08/15 10:56:40;;;;;;;6.85;1.75;;;23.50;99.90;;;;;;5042076;28;20045;-56
2023/08/15 10:59:08;;;;;;;8.18;1.27;;;23.50;99.90;;;;;;5042100;28;20061;-53
2023/08/15 11:01:36;;;;;;;6.57;1.35;;;23.60;99.90;;;;;;5034321;28;20043;-56
2023/08/15 11:04:03;;;;;;;3.78;1.45;;;23.60;99.90;;;;;;5039309;28;20068;-56
2023/08/15 11:06:30;;;;;;;3.55;1.85;;;23.50;99.90;;;;;;5041281;28;20041;-55
2023/08/15 11:08:58;;;;;;;4.43;1.33;;;23.50;99.90;;;;;;5042016;28;20048;-53
2023/08/15 11:11:23;;;;;;;5.55;1.67;;;23.50;99.90;;;;;;5039452;28;20076;-53
2023/08/15 11:13:51;;;;;;;5.35;1.48;;;23.60;99.90;;;;;;5042284;28;20069;-58
2023/08/15 11:16:22;;;;;;;6.85;1.85;;;23.60;99.90;;;;;;5021642;28;20513;-58
2023/08/15 11:18:48;;;;;;;6.63;2.90;;;23.60;99.90;;;;;;5039666;28;20306;-54
2023/08/15 11:21:15;;;;;;;7.35;2.45;;;23.60;99.90;;;;;;5041559;28;20037;-56
2023/08/15 11:23:42;;;;;;;4.65;2.22;;;23.70;99.90;;;;;;5022434;28;20502;-54
2023/08/15 11:26:08;;;;;;;5.43;1.77;;;23.70;99.90;;;;;;5040268;28;20037;-52
2023/08/15 11:28:35;;;;;;;5.75;2.08;;;23.60;99.90;;;;;;5040478;28;20033;-53
2023/08/15 11:31:08;;;;;;;8.38;1.75;;;23.50;99.90;;;;;;5039959;28;20039;-53
2023/08/15 11:33:34;;;;;;;7.43;2.20;;;23.50;99.90;;;;;;5037819;28;20052;-52
2023/08/15 11:36:01;;;;;;;7.43;2.47;;;23.50;99.90;;;;;;5042677;28;20413;-52
2023/08/15 11:38:30;;;;;;;5.72;1.98;;;23.50;99.90;;;;;;5043233;28;20510;-51
2023/08/15 11:40:57;;;;;;;7.55;1.70;;;23.50;99.90;;;;;;5045900;28;20033;-54
2023/08/15 11:43:25;;;;;;;9.38;3.03;;;23.70;99.90;;;;;;5042623;28;20402;-54
2023/08/15 11:45:50;;;;;;;6.70;2.00;;;23.70;99.90;;;;;;5041416;28;20044;-55
2023/08/15 11:48:17;;;;;;;4.82;1.63;;;23.80;99.90;;;;;;5039671;28;20330;-54
2023/08/15 11:50:43;;;;;;;6.68;2.15;;;23.80;99.90;;;;;;5042024;28;20089;-56
2023/08/15 11:53:13;;;;;;;6.03;2.13;;;23.70;99.90;;;;;;5041711;28;20041;-55
2023/08/15 11:55:40;;;;;;;5.65;2.45;;;23.60;99.90;;;;;;5040297;28;20043;-53
2023/08/15 11:58:27;;;;;;;8.90;2.60;;;23.60;99.90;;;;;;5042096;28;20064;-53
2023/08/15 12:01:13;;;;;;;6.05;2.33;;;23.70;99.90;;;;;;5021051;28;20161;-55
2023/08/15 12:03:39;;;;;;;10.25;2.67;;;23.70;99.90;;;;;;5038507;28;20462;-56
2023/08/15 12:06:11;;;;;;;7.68;2.97;;;23.80;99.90;;;;;;5027066;28;20033;-56
2023/08/15 12:08:39;;;;;;;6.88;2.40;;;23.90;99.90;;;;;;5016963;28;20048;-53
2023/08/15 12:11:07;;;;;;;4.00;2.38;;;24.00;99.90;;;;;;5041921;28;20045;-56
2023/08/15 12:13:38;;;;;;;10.30;3.20;;;24.00;99.90;;;;;;5031969;28;20493;-56
2023/08/15 12:16:04;;;;;;;7.65;1.92;;;24.10;99.90;;;;;;5035123;28;20080;-57
2023/08/15 12:18:31;;;;;;;10.85;3.80;;;24.20;99.90;;;;;;5009189;28;20037;-56
2023/08/15 12:20:57;;;;;;;5.40;2.97;;;24.30;99.90;;;;;;5041380;28;20039;-54
2023/08/15 12:23:23;;;;;;;7.28;3.13;;;24.20;99.90;;;;;;5037724;28;20038;-51
2023/08/15 12:25:49;;;;;;;11.13;2.60;;;24.30;99.90;;;;;;5037992;28;20037;-56
2023/08/15 12:28:17;;;;;;;4.53;1.75;;;24.30;99.90;;;;;;5041426;28;20044;-57
2023/08/15 12:30:43;;;;;;;6.68;2.65;;;24.30;99.90;;;;;;5040077;28;20045;-56
2023/08/15 12:33:08;;;;;;;9.85;3.08;;;24.20;99.90;;;;;;5035764;28;20570;-57
2023/08/15 12:35:34;;;;;;;3.97;1.52;;;24.20;99.90;;;;;;5044103;28;20029;-54
2023/08/15 12:37:59;;;;;;;5.75;2.17;;;24.10;99.90;;;;;;5043771;28;20421;-54
2023/08/15 12:40:28;;;;;;;4.57;1.83;;;24.00;99.90;;;;;;5042685;28;20033;-56
2023/08/15 12:42:54;;;;;;;5.65;2.22;;;23.80;99.90;;;;;;5043428;28;20033;-52
2023/08/15 12:45:19;;;;;;;2.63;1.70;;;23.70;99.90;;;;;;5039681;28;20040;-50
2023/08/15 12:47:45;;;;;;;4.55;1.92;;;23.70;99.90;;;;;;5029023;28;20040;-55
2023/08/15 12:50:10;;;;;;;5.20;2.42;;;23.70;99.90;;;;;;5046490;28;20068;-55
2023/08/15 12:52:36;;;;;;;6.00;2.83;;;23.60;99.90;;;;;;5045631;28;20037;-55